Aérodrome :
LOGIN :

S'inscrire | Disclaimer

   EN    FR    IT 

 










Légende :    VFR   VFR Marginal   IFR   IFR Intensif   IFR Très Intensif
Visi : 
Plafond : 
>= 8 km
>= 3000ft
5 à 8 km
1000 à 3000 ft
1500m à 5 km
500 à 1000 ft
800 à 1500m
200 à 500 ft
< 800m
< 200 ft
Symboles :   Orages  Brouillard  Fortes neiges  Fortes précipitations  Vent > 20 kt
SIGMETs :   Divers  Orages  Givrage  Turbulence  Onde Orograph.  Cendres Volcan.







- Altitude de l'aérodrome : 0 ft


ETEB - Ansbach Army Heliport

DERNIER METAR :
  • 211856Z AUTO 33011G21KT 9999 CLR 18/04 A3007 RMK AO2 SLP177 T01750037 $

METARs EXPIRÉS :
  • 211756Z AUTO 32012G21KT 9999 CLR 19/05 A3005 RMK AO2 SLP172 60000 T01890054 10238 20182 51005 $
  • 211656Z AUTO 31010G15KT 9999 SCT047 BKN060 20/10 A3003 RMK AO2 DZB1557E09 SLP167 P0000 T01970101 $

TAF AMD TAF ETEB
Valide du 21 à 14h jusqu'au 22 à 19h UTC


211443Z 2114/2219 32015G20KT 9999 SCT040 510004 QNH3000INS
BECMG 2119/2120 31012KT 9999 SCT040 QNH3012INS
BECMG 2208/2209 28012G25KT 9999 BKN030 510004 QNH3024INS
BECMG 2214/2215 28010G20KT 9999 BKN035 QNH3022INS TX25/2114Z TN07/2204Z
Pas de NOTAMs connus pour ce terrain.



MET'MAP, la Météo Aéronautique d'un coup d'oeil ! - Copyright ORBIFLY Décembre 2007 - Disclaimer

ORBIFLY MET'MAP TEAM :

Programmation & Développement : Alexandra Zaïnal
Conception & Développement : Baudouin d'Aumeries
Co-Programmation & Développement : Marc-Olivier Méhu
Soutien technique & logistique : Manuel Goepfert

Contact : metmap@orbifly.com




SOURCES & CREDITS :

   NOAA